createdAt,value
2019-03-21T00:01:38.966Z,8.97
2019-03-21T00:04:12.484Z,8.63
2019-03-21T00:06:43.425Z,10.10
2019-03-21T00:09:17.030Z,8.30
2019-03-21T00:11:59.508Z,6.73
2019-03-21T00:14:39.581Z,7.13
2019-03-21T00:17:22.580Z,7.40
2019-03-21T00:19:53.560Z,7.17
2019-03-21T00:22:27.491Z,7.40
2019-03-21T00:24:58.494Z,7.33
2019-03-21T00:27:29.388Z,6.03
2019-03-21T00:30:00.379Z,8.83
2019-03-21T00:32:31.220Z,8.40
2019-03-21T00:35:02.125Z,6.97
2019-03-21T00:37:33.135Z,5.00
2019-03-21T00:40:06.372Z,5.60
2019-03-21T00:42:37.255Z,5.40
2019-03-21T00:45:11.508Z,5.93
2019-03-21T00:47:42.790Z,5.47
2019-03-21T00:50:16.715Z,5.20
2019-03-21T00:52:49.870Z,4.87
2019-03-21T00:55:21.389Z,5.13
2019-03-21T00:57:52.344Z,4.87
2019-03-21T01:00:32.231Z,5.60
2019-03-21T01:03:03.831Z,5.10
2019-03-21T01:05:34.916Z,5.20
2019-03-21T01:08:05.875Z,5.47
2019-03-21T01:10:36.824Z,5.07
2019-03-21T01:13:07.773Z,5.57
2019-03-21T01:15:38.691Z,4.87
2019-03-21T01:18:09.721Z,4.77
2019-03-21T01:20:40.772Z,5.37
2019-03-21T01:23:11.656Z,4.70
2019-03-21T01:26:00.497Z,4.83
2019-03-21T01:28:31.610Z,5.53
2019-03-21T01:31:02.510Z,4.80
2019-03-21T01:33:33.412Z,5.53
2019-03-21T01:36:06.325Z,5.03
2019-03-21T01:38:37.360Z,5.10
2019-03-21T01:41:16.858Z,5.50
2019-03-21T01:43:47.789Z,5.50
2019-03-21T01:46:21.181Z,5.20
2019-03-21T01:48:52.077Z,5.30
2019-03-21T01:51:22.973Z,4.80
2019-03-21T01:53:55.327Z,5.00
2019-03-21T01:56:28.163Z,5.77
2019-03-21T01:58:59.195Z,5.53
2019-03-21T02:01:30.183Z,4.90
2019-03-21T02:04:01.075Z,4.67
2019-03-21T02:06:32.060Z,4.70
2019-03-21T02:09:04.691Z,5.07
2019-03-21T02:11:35.665Z,4.90
2019-03-21T02:14:06.671Z,5.20
2019-03-21T02:16:37.560Z,5.77
2019-03-21T02:19:08.663Z,5.87
2019-03-21T02:21:39.899Z,5.43
2019-03-21T02:24:10.851Z,4.77
2019-03-21T02:26:41.888Z,5.57
2019-03-21T02:29:12.868Z,4.63
2019-03-21T02:31:43.895Z,4.43
2019-03-21T02:34:14.845Z,5.23
2019-03-21T02:36:45.985Z,4.70
2019-03-21T02:39:16.917Z,4.73
2019-03-21T02:41:48.040Z,4.57
2019-03-21T02:44:19.108Z,4.73
2019-03-21T02:46:50.107Z,5.00
2019-03-21T02:49:21.169Z,4.90
2019-03-21T02:51:52.161Z,4.40
2019-03-21T02:54:23.029Z,4.80
2019-03-21T02:56:54.065Z,4.33
2019-03-21T02:59:25.005Z,4.30
2019-03-21T03:01:56.140Z,4.77
2019-03-21T03:04:27.062Z,4.93
2019-03-21T03:06:59.724Z,4.87
2019-03-21T03:09:30.542Z,4.87
2019-03-21T03:12:01.591Z,4.63
2019-03-21T03:14:42.897Z,4.60
2019-03-21T03:17:13.823Z,4.70
2019-03-21T03:19:44.737Z,4.90
2019-03-21T03:22:16.117Z,5.30
2019-03-21T03:24:47.004Z,5.43
2019-03-21T03:27:17.941Z,4.70
2019-03-21T03:29:48.869Z,5.00
2019-03-21T03:32:19.908Z,4.70
2019-03-21T03:34:51.179Z,5.53
2019-03-21T03:37:22.246Z,5.60
2019-03-21T03:39:53.228Z,5.50
2019-03-21T03:42:24.481Z,6.30
2019-03-21T03:45:03.227Z,5.50
2019-03-21T03:47:34.169Z,5.50
2019-03-21T03:50:08.441Z,5.13
2019-03-21T03:52:39.503Z,5.27
2019-03-21T03:55:15.938Z,5.57
2019-03-21T03:57:49.077Z,5.23
2019-03-21T04:00:22.747Z,4.90
2019-03-21T04:02:55.882Z,5.40
2019-03-21T04:05:26.734Z,5.57
2019-03-21T04:07:57.629Z,5.40
2019-03-21T04:10:40.021Z,5.60
2019-03-21T04:13:11.129Z,5.13
2019-03-21T04:15:52.664Z,5.50
2019-03-21T04:18:15.717Z,5.73
2019-03-21T04:21:02.329Z,5.60
2019-03-21T04:23:33.237Z,5.37
2019-03-21T04:26:09.674Z,4.97
2019-03-21T04:28:41.765Z,6.10
2019-03-21T04:31:12.812Z,5.70
2019-03-21T04:33:45.582Z,5.10
2019-03-21T04:36:16.496Z,4.53
2019-03-21T04:38:47.403Z,5.00
2019-03-21T04:41:18.258Z,5.17
2019-03-21T04:43:49.372Z,5.13
2019-03-21T04:46:20.350Z,4.67
2019-03-21T04:48:51.256Z,5.43
2019-03-21T04:51:22.158Z,5.27
2019-03-21T04:53:53.609Z,6.23
2019-03-21T04:56:24.602Z,5.63
2019-03-21T04:58:55.616Z,5.37
2019-03-21T05:01:26.522Z,5.83
2019-03-21T05:03:57.694Z,5.93
2019-03-21T05:06:28.680Z,5.70
2019-03-21T05:08:59.580Z,5.80
2019-03-21T05:11:30.655Z,5.63
2019-03-21T05:14:01.592Z,6.13
2019-03-21T05:16:32.490Z,5.77
2019-03-21T05:19:03.477Z,5.33
2019-03-21T05:21:34.513Z,5.57
2019-03-21T05:24:05.557Z,6.30
2019-03-21T05:26:37.064Z,6.23
2019-03-21T05:29:07.941Z,5.73
2019-03-21T05:31:38.850Z,6.43
2019-03-21T05:34:09.817Z,6.40
2019-03-21T05:36:41.135Z,5.90
2019-03-21T05:39:12.439Z,5.67
2019-03-21T05:41:43.347Z,6.37
2019-03-21T05:44:19.943Z,5.80
2019-03-21T05:46:50.899Z,5.70
2019-03-21T05:49:22.003Z,5.40
2019-03-21T05:51:52.996Z,5.60
2019-03-21T05:54:23.906Z,5.53
2019-03-21T05:56:55.611Z,5.53
2019-03-21T05:59:26.870Z,5.60
2019-03-21T06:01:57.827Z,6.13
2019-03-21T06:04:28.912Z,6.00
2019-03-21T06:07:08.720Z,5.50
2019-03-21T06:09:39.747Z,6.13
2019-03-21T06:12:10.703Z,6.13
2019-03-21T06:14:44.774Z,5.63
2019-03-21T06:17:15.738Z,5.53
2019-03-21T06:19:59.050Z,5.23
2019-03-21T06:22:52.472Z,5.67
2019-03-21T06:25:29.276Z,5.53
2019-03-21T06:28:00.149Z,5.53
2019-03-21T06:30:31.037Z,6.27
2019-03-21T06:33:01.995Z,5.40
2019-03-21T06:35:33.127Z,6.23
2019-03-21T06:38:04.149Z,5.60
2019-03-21T06:40:35.101Z,5.73
2019-03-21T06:43:06.089Z,5.30
2019-03-21T06:45:47.557Z,6.03
2019-03-21T06:48:09.761Z,4.93
2019-03-21T06:50:40.679Z,5.63
2019-03-21T06:53:11.576Z,5.00
2019-03-21T06:55:44.887Z,4.77
2019-03-21T06:58:16.205Z,5.50
2019-03-21T07:00:47.149Z,5.77
2019-03-21T07:03:18.168Z,5.83
2019-03-21T07:05:49.265Z,7.40
2019-03-21T07:08:20.411Z,5.10
2019-03-21T07:10:51.507Z,5.77
2019-03-21T07:13:22.757Z,6.77
2019-03-21T07:15:53.708Z,5.30
2019-03-21T07:18:24.732Z,5.97
2019-03-21T07:20:55.677Z,6.20
2019-03-21T07:23:26.715Z,6.37
2019-03-21T07:25:57.860Z,6.33
2019-03-21T07:28:28.837Z,6.27
2019-03-21T07:30:59.793Z,6.50
2019-03-21T07:33:30.853Z,6.83
2019-03-21T07:36:01.758Z,7.37
2019-03-21T07:38:32.905Z,6.63
2019-03-21T07:41:03.900Z,7.30
2019-03-21T07:43:34.928Z,6.37
2019-03-21T07:46:05.973Z,6.70
2019-03-21T07:48:36.873Z,6.87
2019-03-21T07:51:07.917Z,6.57
2019-03-21T07:53:38.788Z,5.90
2019-03-21T07:56:09.737Z,5.97
2019-03-21T07:58:40.785Z,6.70
2019-03-21T08:01:11.817Z,6.40
2019-03-21T08:03:42.719Z,6.70
2019-03-21T08:06:13.687Z,6.77
2019-03-21T08:08:44.566Z,6.83
2019-03-21T08:11:15.521Z,6.57
2019-03-21T08:13:46.479Z,6.13
2019-03-21T08:16:17.379Z,6.33
2019-03-21T08:18:48.327Z,6.73
2019-03-21T08:21:21.720Z,6.13
2019-03-21T08:23:52.973Z,6.33
2019-03-21T08:26:23.992Z,6.53
2019-03-21T08:28:55.015Z,6.80
2019-03-21T08:31:25.995Z,6.33
2019-03-21T08:33:57.052Z,6.60
2019-03-21T08:36:28.115Z,5.90
2019-03-21T08:38:59.011Z,6.70
2019-03-21T08:41:30.155Z,5.90
2019-03-21T08:44:01.055Z,5.80
2019-03-21T08:46:32.052Z,5.70
2019-03-21T08:49:03.138Z,6.10
2019-03-21T08:51:34.181Z,5.77
2019-03-21T08:54:05.216Z,6.07
2019-03-21T08:56:36.244Z,6.23
2019-03-21T08:59:07.122Z,5.87
2019-03-21T09:01:38.159Z,5.30
2019-03-21T09:04:09.139Z,5.20
2019-03-21T09:06:40.127Z,4.70
2019-03-21T09:09:11.061Z,4.53
2019-03-21T09:11:42.320Z,4.33
2019-03-21T09:14:13.590Z,7.67
2019-03-21T09:16:44.969Z,4.67
2019-03-21T09:19:15.982Z,4.50
2019-03-21T09:21:46.930Z,3.47
2019-03-21T09:24:18.139Z,3.37
2019-03-21T09:26:49.106Z,3.47
2019-03-21T09:29:20.096Z,4.10
2019-03-21T09:31:51.122Z,3.70
2019-03-21T09:34:22.182Z,3.07
2019-03-21T09:36:53.190Z,3.80
2019-03-21T09:39:24.267Z,4.17
2019-03-21T09:41:55.152Z,3.30
2019-03-21T09:44:28.150Z,3.03
2019-03-21T09:46:59.059Z,3.13
2019-03-21T09:49:30.048Z,3.00
2019-03-21T09:52:00.971Z,3.33
2019-03-21T09:54:32.654Z,2.90
2019-03-21T09:57:03.659Z,3.67
2019-03-21T09:59:34.641Z,3.40
2019-03-21T10:02:05.657Z,3.10
2019-03-21T10:04:36.600Z,2.83
2019-03-21T10:07:07.559Z,2.93
2019-03-21T10:09:38.706Z,3.03
2019-03-21T10:12:09.726Z,2.50
2019-03-21T10:14:40.780Z,2.83
2019-03-21T10:17:11.836Z,2.40
2019-03-21T10:19:42.773Z,2.70
2019-03-21T10:22:13.808Z,3.10
2019-03-21T10:24:45.107Z,2.63
2019-03-21T10:27:16.191Z,2.87
2019-03-21T10:29:47.133Z,3.00
2019-03-21T10:32:18.337Z,3.10
2019-03-21T10:34:49.381Z,3.00
2019-03-21T10:37:20.419Z,4.50
2019-03-21T10:39:51.306Z,2.60
2019-03-21T10:42:22.664Z,2.53
2019-03-21T10:44:53.540Z,2.53
2019-03-21T10:47:24.557Z,2.63
2019-03-21T10:49:55.667Z,2.97
2019-03-21T10:52:26.672Z,3.00
2019-03-21T10:54:57.743Z,2.60
2019-03-21T10:57:28.597Z,2.33
2019-03-21T11:00:01.818Z,2.60
2019-03-21T11:02:32.128Z,1.80
2019-03-21T11:05:03.085Z,1.77
2019-03-21T11:07:34.077Z,1.80
2019-03-21T11:10:06.859Z,1.90
2019-03-21T11:12:37.801Z,1.70
2019-03-21T11:15:08.934Z,2.00
2019-03-21T11:17:39.887Z,1.90
2019-03-21T11:20:12.626Z,1.80
2019-03-21T11:22:43.604Z,1.70
2019-03-21T11:25:14.660Z,1.70
2019-03-21T11:27:45.607Z,1.40
2019-03-21T11:30:19.627Z,1.93
2019-03-21T11:32:50.737Z,1.70
2019-03-21T11:35:21.815Z,1.73
2019-03-21T11:37:52.831Z,1.90
2019-03-21T11:40:23.855Z,1.40
2019-03-21T11:42:54.910Z,1.57
2019-03-21T11:45:25.942Z,1.60
2019-03-21T11:47:59.562Z,1.40
2019-03-21T11:50:29.617Z,1.47
2019-03-21T11:53:00.589Z,1.60
2019-03-21T11:55:31.644Z,1.20
2019-03-21T11:58:02.581Z,1.90
2019-03-21T12:00:43.156Z,1.70
2019-03-21T12:03:06.519Z,1.93
2019-03-21T12:05:37.590Z,1.80
2019-03-21T12:08:08.529Z,1.33
2019-03-21T12:10:39.574Z,1.57
2019-03-21T12:13:10.515Z,1.93
2019-03-21T12:15:41.542Z,1.73
2019-03-21T12:18:12.831Z,1.65
2019-03-21T12:20:43.796Z,1.60
2019-03-21T12:23:14.673Z,2.87
2019-03-21T12:25:45.671Z,1.50
2019-03-21T12:28:16.569Z,2.83
2019-03-21T12:30:47.686Z,1.30
2019-03-21T12:33:18.611Z,1.70
2019-03-21T12:35:49.500Z,1.80
2019-03-21T12:38:20.458Z,1.97
2019-03-21T12:40:51.402Z,1.57
2019-03-21T12:43:22.549Z,1.93
2019-03-21T12:45:54.109Z,1.90
2019-03-21T12:48:25.104Z,1.53
2019-03-21T12:50:56.191Z,1.70
2019-03-21T12:53:27.326Z,1.60
2019-03-21T12:55:58.410Z,1.50
2019-03-21T12:58:29.512Z,1.60
2019-03-21T13:01:00.474Z,1.50
2019-03-21T13:03:31.499Z,1.57
2019-03-21T13:06:02.760Z,2.40
2019-03-21T13:08:34.294Z,1.72
2019-03-21T13:11:05.527Z,1.72
2019-03-21T13:13:36.509Z,1.77
2019-03-21T13:16:07.574Z,1.82
2019-03-21T13:18:38.672Z,1.50
2019-03-21T13:21:09.691Z,1.40
2019-03-21T13:23:40.702Z,1.30
2019-03-21T13:26:11.726Z,1.40
2019-03-21T13:28:42.888Z,1.10
2019-03-21T13:31:13.804Z,1.43
2019-03-21T13:33:44.802Z,1.37
2019-03-21T13:36:15.828Z,1.55
2019-03-21T13:38:46.796Z,1.60
2019-03-21T13:41:19.318Z,1.77
2019-03-21T13:43:50.504Z,1.57
2019-03-21T13:46:23.217Z,1.70
2019-03-21T13:48:57.840Z,1.87
2019-03-21T13:51:29.214Z,1.65
2019-03-21T13:54:01.884Z,1.87
2019-03-21T13:56:37.952Z,2.10
2019-03-21T13:59:06.298Z,2.27
2019-03-21T14:01:37.364Z,1.60
2019-03-21T14:04:08.792Z,1.77
2019-03-21T14:06:40.022Z,1.40
2019-03-21T14:09:11.044Z,1.50
2019-03-21T14:11:42.069Z,1.77
2019-03-21T14:14:13.150Z,1.60
2019-03-21T14:16:44.312Z,1.60
2019-03-21T14:19:18.358Z,1.50
2019-03-21T14:21:49.334Z,1.40
2019-03-21T14:24:20.515Z,1.60
2019-03-21T14:26:51.542Z,1.70
2019-03-21T14:29:22.596Z,1.77
2019-03-21T14:31:53.628Z,1.30
2019-03-21T14:34:24.734Z,1.57
2019-03-21T14:36:56.899Z,1.77
2019-03-21T14:39:27.912Z,1.63
2019-03-21T14:41:59.016Z,1.57
2019-03-21T14:44:30.392Z,1.60
2019-03-21T14:47:02.338Z,1.80
2019-03-21T14:50:13.099Z,1.80
2019-03-21T14:52:44.689Z,1.80
2019-03-21T14:55:21.618Z,1.50
2019-03-21T14:57:56.959Z,1.60
2019-03-21T15:00:28.094Z,1.30
2019-03-21T15:02:59.212Z,1.63
2019-03-21T15:05:30.155Z,1.57
2019-03-21T15:08:05.748Z,1.50
2019-03-21T15:10:38.623Z,1.50
2019-03-21T15:13:09.595Z,1.87
2019-03-21T15:15:40.555Z,1.60
2019-03-21T15:18:11.637Z,1.43
2019-03-21T15:20:42.686Z,1.20
2019-03-21T15:23:13.781Z,1.57
2019-03-21T15:25:44.912Z,1.50
2019-03-21T15:28:16.008Z,1.60
2019-03-21T15:30:47.103Z,1.70
2019-03-21T15:33:18.444Z,1.80
2019-03-21T15:35:49.394Z,1.67
2019-03-21T15:38:20.345Z,2.07
2019-03-21T15:40:51.521Z,1.53
2019-03-21T15:43:22.517Z,2.00
2019-03-21T15:45:53.516Z,2.03
2019-03-21T15:48:24.647Z,1.67
2019-03-21T15:51:04.274Z,1.90
2019-03-21T15:53:28.392Z,1.80
2019-03-21T15:55:59.387Z,1.60
2019-03-21T15:58:30.408Z,2.00
2019-03-21T16:01:01.784Z,1.90
2019-03-21T16:03:32.835Z,1.50
2019-03-21T16:06:03.963Z,1.50
2019-03-21T16:08:35.038Z,1.40
2019-03-21T16:11:09.299Z,1.73
2019-03-21T16:13:40.478Z,2.47
2019-03-21T16:16:14.317Z,1.67
2019-03-21T16:18:45.739Z,1.70
2019-03-21T16:21:16.756Z,1.90
2019-03-21T16:23:47.703Z,1.77
2019-03-21T16:26:18.701Z,2.10
2019-03-21T16:28:49.638Z,1.60
2019-03-21T16:31:20.605Z,1.63
2019-03-21T16:33:51.477Z,2.07
2019-03-21T16:36:22.584Z,1.73
2019-03-21T16:38:53.661Z,1.80
2019-03-21T16:41:24.687Z,2.10
2019-03-21T16:43:55.852Z,1.50
2019-03-21T16:46:26.841Z,1.73
2019-03-21T16:48:57.698Z,1.93
2019-03-21T16:51:31.002Z,1.50
2019-03-21T16:54:01.968Z,1.83
2019-03-21T16:56:32.948Z,1.73
2019-03-21T16:59:03.977Z,1.90
2019-03-21T17:01:34.951Z,1.77
2019-03-21T17:04:06.127Z,1.73
2019-03-21T17:06:37.528Z,2.07
2019-03-21T17:09:10.104Z,2.80
2019-03-21T17:11:41.713Z,2.73
2019-03-21T17:14:13.891Z,2.03
2019-03-21T17:16:45.098Z,1.73
2019-03-21T17:19:16.131Z,1.70
2019-03-21T17:21:47.075Z,2.10
2019-03-21T17:24:28.712Z,1.60
2019-03-21T17:26:50.846Z,2.00
2019-03-21T17:29:22.172Z,2.47
2019-03-21T17:31:53.143Z,2.27
2019-03-21T17:34:27.221Z,2.07
2019-03-21T17:36:58.293Z,1.90
2019-03-21T17:39:29.323Z,1.57
2019-03-21T17:42:01.886Z,1.67
2019-03-21T17:44:33.005Z,2.67
2019-03-21T17:47:04.183Z,1.70
2019-03-21T17:49:35.163Z,2.13
2019-03-21T17:52:06.749Z,2.90
2019-03-21T17:54:41.734Z,2.57
2019-03-21T17:57:46.250Z,1.90
2019-03-21T18:00:16.919Z,2.20
2019-03-21T18:02:48.711Z,2.50
2019-03-21T18:05:20.065Z,4.40
2019-03-21T18:07:51.244Z,2.33
2019-03-21T18:10:34.980Z,1.80
2019-03-21T18:13:06.212Z,2.27
2019-03-21T18:15:37.238Z,1.90
2019-03-21T18:18:08.188Z,2.00
2019-03-21T18:20:40.212Z,1.97
2019-03-21T18:23:11.702Z,2.80
2019-03-21T18:25:42.735Z,2.03
2019-03-21T18:28:13.688Z,2.80
2019-03-21T18:30:44.585Z,2.03
2019-03-21T18:33:15.542Z,2.77
2019-03-21T18:35:46.785Z,2.87
2019-03-21T18:38:17.808Z,3.27
2019-03-21T18:40:48.741Z,2.90
2019-03-21T18:43:19.836Z,4.07
2019-03-21T18:45:50.800Z,3.83
2019-03-21T18:48:22.016Z,4.03
2019-03-21T18:50:52.973Z,4.53
2019-03-21T18:53:24.465Z,3.97
2019-03-21T18:55:55.973Z,3.60
2019-03-21T18:58:27.334Z,4.23
2019-03-21T19:01:01.106Z,4.07
2019-03-21T19:03:32.048Z,5.00
2019-03-21T19:06:03.524Z,5.33
2019-03-21T19:08:34.637Z,6.00
2019-03-21T19:11:26.425Z,4.07
2019-03-21T19:13:57.937Z,3.77
2019-03-21T19:16:32.081Z,4.20
2019-03-21T19:19:01.622Z,4.87
2019-03-21T19:21:32.919Z,4.60
2019-03-21T19:24:04.422Z,4.23
2019-03-21T19:26:38.729Z,4.20
2019-03-21T19:29:10.101Z,4.70
2019-03-21T19:31:41.897Z,4.47
2019-03-21T19:34:13.082Z,5.37
2019-03-21T19:36:44.302Z,5.53
2019-03-21T19:39:15.230Z,5.63
2019-03-21T19:41:46.364Z,6.57
2019-03-21T19:44:21.089Z,8.67
2019-03-21T19:46:52.543Z,9.93
2019-03-21T19:49:23.401Z,7.80
2019-03-21T19:51:55.113Z,9.87
2019-03-21T19:54:26.297Z,9.40
2019-03-21T19:56:58.641Z,5.73
2019-03-21T19:59:29.939Z,6.83
2019-03-21T20:02:00.992Z,8.87
2019-03-21T20:04:33.870Z,8.47
2019-03-21T20:07:05.579Z,8.50
2019-03-21T20:09:36.939Z,7.37
2019-03-21T20:12:08.152Z,7.77
2019-03-21T20:14:39.203Z,8.00
2019-03-21T20:17:10.368Z,8.97
2019-03-21T20:19:41.337Z,9.03
2019-03-21T20:22:12.457Z,9.53
2019-03-21T20:24:43.519Z,9.43
2019-03-21T20:27:14.457Z,10.60
2019-03-21T20:29:45.365Z,11.77
2019-03-21T20:32:20.751Z,12.40
2019-03-21T20:34:49.105Z,12.10
2019-03-21T20:37:20.221Z,11.07
2019-03-21T20:39:51.253Z,10.77
2019-03-21T20:42:22.297Z,10.87
2019-03-21T20:44:53.269Z,10.90
2019-03-21T20:47:24.281Z,13.00
2019-03-21T20:49:55.246Z,12.10
2019-03-21T20:52:26.311Z,13.27
2019-03-21T20:54:57.295Z,12.70
2019-03-21T20:57:29.926Z,11.97
2019-03-21T21:00:00.933Z,8.70
2019-03-21T21:02:31.962Z,9.10
2019-03-21T21:05:02.902Z,8.17
2019-03-21T21:07:34.067Z,8.37
2019-03-21T21:10:07.381Z,9.60
2019-03-21T21:12:38.377Z,10.77
2019-03-21T21:15:11.786Z,11.87
2019-03-21T21:17:43.239Z,9.63
2019-03-21T21:20:16.388Z,10.33
2019-03-21T21:22:47.453Z,9.93
2019-03-21T21:25:18.469Z,9.10
2019-03-21T21:27:50.346Z,11.70
2019-03-21T21:30:22.530Z,9.20
2019-03-21T21:33:01.250Z,9.73
2019-03-21T21:35:32.268Z,8.37
2019-03-21T21:38:03.208Z,9.63
2019-03-21T21:40:34.163Z,9.37
2019-03-21T21:43:05.283Z,8.77
2019-03-21T21:45:36.534Z,9.93
2019-03-21T21:48:07.488Z,9.63
2019-03-21T21:50:38.476Z,10.30
2019-03-21T21:53:09.481Z,12.87
2019-03-21T21:55:40.735Z,8.10
2019-03-21T21:58:11.810Z,9.60
2019-03-21T22:00:42.911Z,10.00
2019-03-21T22:03:13.800Z,9.93
2019-03-21T22:05:44.823Z,9.70
2019-03-21T22:08:15.922Z,10.27
2019-03-21T22:10:46.880Z,9.83
2019-03-21T22:13:17.810Z,9.20
2019-03-21T22:15:48.769Z,8.90
2019-03-21T22:18:19.672Z,8.57
2019-03-21T22:20:50.773Z,10.03
2019-03-21T22:23:21.746Z,9.40
2019-03-21T22:25:52.641Z,9.00
2019-03-21T22:28:23.538Z,8.80
2019-03-21T22:30:54.781Z,8.47
2019-03-21T22:33:25.734Z,9.00
2019-03-21T22:35:56.749Z,8.87
2019-03-21T22:38:27.741Z,8.70
2019-03-21T22:40:58.853Z,9.10
2019-03-21T22:43:29.798Z,9.87
2019-03-21T22:46:00.714Z,9.67
2019-03-21T22:48:31.647Z,10.47
2019-03-21T22:51:02.599Z,11.83
2019-03-21T22:53:33.750Z,10.80
2019-03-21T22:56:04.768Z,10.93
2019-03-21T22:58:36.642Z,11.50
2019-03-21T23:01:07.812Z,11.70
2019-03-21T23:03:38.748Z,9.67
2019-03-21T23:06:09.623Z,9.97
2019-03-21T23:08:40.551Z,11.00
2019-03-21T23:11:11.453Z,10.80
2019-03-21T23:13:42.381Z,10.90
2019-03-21T23:16:13.280Z,10.90
2019-03-21T23:18:44.228Z,9.83
2019-03-21T23:21:15.121Z,9.77
2019-03-21T23:23:45.995Z,9.67
2019-03-21T23:26:16.917Z,10.40
2019-03-21T23:28:47.816Z,9.37
2019-03-21T23:31:18.678Z,10.10
2019-03-21T23:33:49.898Z,9.60
2019-03-21T23:36:20.916Z,11.20
2019-03-21T23:38:51.816Z,10.03
2019-03-21T23:41:22.812Z,9.73
2019-03-21T23:43:53.713Z,11.27
2019-03-21T23:46:24.669Z,10.83
2019-03-21T23:48:55.559Z,10.67
2019-03-21T23:51:26.678Z,10.70
2019-03-21T23:53:57.556Z,11.63
2019-03-21T23:56:28.779Z,10.33
2019-03-21T23:58:59.746Z,10.33
